If you wish to contribute or participate in the discussions about articles you are invited to join SKYbrary as a registered user

 Actions

Deauville-Saint-Gatien Airport

From SKYbrary Wiki

LFRG
Airport
ICAO: LFRG – IATA: DOL
Summary
Name Deauville-Saint-Gatien Airport
Region Europe
Territory France FR.gif
Location , Basse-Normandie
Serving Deauville
Elevation 145.999 m
479 ft
479 ft145.999 m
Type medium airport
Coordinates 49° 21' 55.22" N, 0° 9' 15.50" E
Runways
Designator Length Width Surface ROPS
12/30 2550 m8,366.142 ft
45 m147.638 ft
ASP yes/yes


METAR
Observation LFRG 231630Z AUTO 10004KT 060V160 CAVOK 26/10 Q1022 NOSIG
Station ST GATIEN
Date/Time 23 August 2019 16:30:00
Wind direction 100°
Wind speed 04 kts
Lowest cloud amount clouds and visibility OK
Temperature 26°C
Dew point 10°C
Humidity 36%
QNH 1022 hPa
Weather condition n/a